createdAt,value
2023-01-15T07:23:31.007Z,3.57
2023-01-15T07:28:32.644Z,3.73
2023-01-15T07:33:34.534Z,3.83
2023-01-15T07:38:36.089Z,3.55
2023-01-15T07:43:56.354Z,3.71
2023-01-15T07:49:16.747Z,3.84
2023-01-15T07:54:18.304Z,3.87
2023-01-15T07:59:20.245Z,4.02
2023-01-15T08:04:21.879Z,4.11
2023-01-15T08:09:25.777Z,4.18
2023-01-15T08:14:45.967Z,4.21
2023-01-15T08:19:47.849Z,4.22
2023-01-15T08:24:49.572Z,4.45
2023-01-15T08:29:51.441Z,4.21
2023-01-15T08:34:53.054Z,4.45
2023-01-15T08:39:55.119Z,4.42
2023-01-15T08:44:56.746Z,4.30
2023-01-15T08:49:58.318Z,4.30
2023-01-15T08:55:00.158Z,4.30
2023-01-15T09:00:01.938Z,4.71
2023-01-15T09:05:03.796Z,4.20
2023-01-15T09:10:06.078Z,4.45
2023-01-15T09:15:08.282Z,4.54
2023-01-15T09:20:12.220Z,4.54
2023-01-15T09:25:15.788Z,4.61
2023-01-15T09:30:20.618Z,4.58
2023-01-15T09:35:25.611Z,4.84
2023-01-15T09:40:41.318Z,4.95
2023-01-15T09:46:02.025Z,5.06
2023-01-15T09:51:15.743Z,5.15
2023-01-15T09:56:28.985Z,5.28
2023-01-15T10:01:33.757Z,5.06
2023-01-15T10:06:50.316Z,4.98
2023-01-15T10:12:35.644Z,5.20
2023-01-15T10:17:48.399Z,4.89
2023-01-15T10:23:00.015Z,5.01
2023-01-15T10:28:14.262Z,5.26
2023-01-15T10:33:41.401Z,5.31
2023-01-15T10:39:06.300Z,5.43
2023-01-15T10:44:43.642Z,5.43
2023-01-15T10:49:46.709Z,5.44
2023-01-15T10:54:56.704Z,5.46
2023-01-15T11:00:01.075Z,5.48
2023-01-15T11:05:04.036Z,5.59
2023-01-15T11:10:13.139Z,5.65
2023-01-15T11:15:40.437Z,5.64
2023-01-15T11:20:47.745Z,5.69
2023-01-15T11:25:55.741Z,5.75
2023-01-15T11:30:57.553Z,5.75
2023-01-15T11:36:02.673Z,5.69
2023-01-15T11:41:05.552Z,5.66
2023-01-15T11:46:47.387Z,5.82
2023-01-15T11:52:30.073Z,5.77
2023-01-15T11:57:33.963Z,5.67
2023-01-15T12:02:50.726Z,5.74
2023-01-15T12:07:56.767Z,5.68
2023-01-15T12:13:15.463Z,5.77
2023-01-15T12:18:44.919Z,5.70
2023-01-15T12:24:10.285Z,5.62
2023-01-15T12:29:22.738Z,5.68
2023-01-15T12:34:46.087Z,5.69
2023-01-15T12:40:04.048Z,5.64
2023-01-15T12:45:34.872Z,5.75
2023-01-15T12:50:55.459Z,5.62
2023-01-15T12:56:15.529Z,5.59
2023-01-15T13:01:43.417Z,5.42
2023-01-15T13:07:28.551Z,5.38
2023-01-15T13:12:31.099Z,5.27
2023-01-15T13:17:54.092Z,5.54
2023-01-15T13:23:33.039Z,5.77
2023-01-15T13:29:00.356Z,5.83
2023-01-15T13:34:12.911Z,6.10
2023-01-15T13:39:22.028Z,6.20
2023-01-15T13:44:31.210Z,6.20
2023-01-15T13:49:47.169Z,6.17
2023-01-15T13:54:49.601Z,6.17
2023-01-15T13:59:51.862Z,6.04
2023-01-15T14:04:54.343Z,6.21
2023-01-15T14:09:55.945Z,6.27
2023-01-15T14:14:57.598Z,6.22
2023-01-15T14:20:17.587Z,6.12
2023-01-15T14:25:51.533Z,6.06
2023-01-15T14:31:44.252Z,5.88
2023-01-15T14:36:54.656Z,5.90
2023-01-15T14:42:26.528Z,5.81
2023-01-15T14:47:34.745Z,5.80
2023-01-15T14:52:36.646Z,5.74
2023-01-15T14:57:39.615Z,5.76
2023-01-15T15:02:45.607Z,5.77
2023-01-15T15:07:53.210Z,5.61
2023-01-15T15:13:06.030Z,5.75
2023-01-15T15:18:32.225Z,5.70
2023-01-15T15:24:24.949Z,5.62
2023-01-15T15:29:27.369Z,5.63
2023-01-15T15:35:16.687Z,5.62
2023-01-15T15:40:21.068Z,5.49
2023-01-15T15:45:44.678Z,5.39
2023-01-15T15:50:50.283Z,5.23
2023-01-15T15:55:53.791Z,5.09
2023-01-15T16:00:57.587Z,4.87
2023-01-15T16:06:04.340Z,4.91
2023-01-15T16:11:12.220Z,4.87
2023-01-15T16:16:19.333Z,4.66
2023-01-15T16:21:41.970Z,4.70
2023-01-15T16:26:55.738Z,4.55
2023-01-15T16:31:59.791Z,4.59
2023-01-15T16:37:02.463Z,4.61
2023-01-15T16:42:05.465Z,4.59
2023-01-15T16:47:07.544Z,4.60
2023-01-15T16:52:36.757Z,4.55
2023-01-15T16:57:38.719Z,4.36
2023-01-15T17:02:46.192Z,4.42
2023-01-15T17:07:50.434Z,4.55
2023-01-15T17:12:56.262Z,4.60
2023-01-15T17:17:58.068Z,4.39
2023-01-15T17:22:59.822Z,4.61
2023-01-15T17:28:03.452Z,4.64
2023-01-15T17:33:07.331Z,4.67
2023-01-15T17:38:12.122Z,4.71
2023-01-15T17:43:15.585Z,4.53
2023-01-15T17:48:18.532Z,4.62
2023-01-15T17:53:20.145Z,4.70
2023-01-15T17:58:40.354Z,4.58
2023-01-15T18:04:11.340Z,4.51
2023-01-15T18:09:13.417Z,4.56
2023-01-15T18:14:15.158Z,4.39
2023-01-15T18:19:16.769Z,4.44
2023-01-15T18:24:22.099Z,4.27
2023-01-15T18:29:23.786Z,4.30
2023-01-15T18:34:25.491Z,4.36
2023-01-15T18:39:27.213Z,4.39
2023-01-15T18:44:47.329Z,4.11
2023-01-15T18:49:49.918Z,4.18
2023-01-15T18:54:51.883Z,4.21
2023-01-15T18:59:53.781Z,4.03
2023-01-15T19:04:55.389Z,4.22
2023-01-15T19:09:56.968Z,4.22
2023-01-15T19:15:17.120Z,4.22
2023-01-15T19:20:19.880Z,4.22
2023-01-15T19:25:23.451Z,4.31
2023-01-15T19:30:27.303Z,4.26
2023-01-15T19:35:29.001Z,4.30
2023-01-15T19:40:32.719Z,4.26
2023-01-15T19:45:53.724Z,4.19
2023-01-15T19:50:55.506Z,4.25
2023-01-15T19:55:57.597Z,4.16
2023-01-15T20:00:59.316Z,4.17
2023-01-15T20:06:00.956Z,4.07
2023-01-15T20:11:02.537Z,4.18
2023-01-15T20:16:15.802Z,4.05
2023-01-15T20:21:18.019Z,4.01
2023-01-15T20:26:19.852Z,4.02
2023-01-15T20:31:21.750Z,3.97
2023-01-15T20:36:23.477Z,4.00
2023-01-15T20:41:43.910Z,3.96
2023-01-15T20:46:45.562Z,3.94
2023-01-15T20:51:47.986Z,3.95
2023-01-15T20:56:49.643Z,3.97
2023-01-15T21:01:53.495Z,4.00
2023-01-15T21:06:56.496Z,3.66
2023-01-15T21:11:58.032Z,3.65
